Time;durP1;ratioP1;P1;durP2;ratioP2;P2;SDS_P1;SDS_P2;PMS_P1;PMS_P2;Temp;Humidity;BMP_temperature;BMP_pressure;BME280_temperature;BME280_humidity;BME280_pressure;Samples;Min_cycle;Max_cycle;Signal;HPM_P1;HPM_P2
2022/07/21 00:01:15;;;;;;;16.88;4.85;;;;;;;32.33;25.49;101100.97;5031235;27;99446;-69
2022/07/21 00:03:42;;;;;;;8.65;4.82;;;;;;;32.31;25.48;101093.97;5027717;27;98679;-69
2022/07/21 00:06:08;;;;;;;10.75;5.03;;;;;;;32.35;25.28;101098.06;5026372;27;98582;-70
2022/07/21 00:08:35;;;;;;;9.93;5.18;;;;;;;32.33;25.65;101094.66;5026145;27;97576;-69
2022/07/21 00:11:03;;;;;;;10.55;4.35;;;;;;;32.14;25.80;101090.56;5024280;27;99368;-68
2022/07/21 00:13:29;;;;;;;12.57;5.18;;;;;;;32.20;25.37;101097.19;5027424;27;98825;-69
2022/07/21 00:15:57;;;;;;;11.23;5.43;;;;;;;32.20;25.34;101094.44;5020824;27;98060;-69
2022/07/21 00:18:24;;;;;;;12.90;5.22;;;;;;;32.14;25.87;101082.38;5026543;28;97371;-70
2022/07/21 00:20:50;;;;;;;12.60;4.85;;;;;;;32.21;25.52;101079.75;5022431;27;99157;-70
2022/07/21 00:23:18;;;;;;;14.02;5.00;;;;;;;32.16;25.69;101074.00;5022114;27;101851;-69
2022/07/21 00:25:44;;;;;;;8.30;4.97;;;;;;;32.08;25.69;101071.31;5024042;28;97009;-71
2022/07/21 00:28:12;;;;;;;9.85;5.43;;;;;;;32.10;25.79;101061.88;5025658;27;97235;-70
2022/07/21 00:30:38;;;;;;;9.18;4.85;;;;;;;31.89;25.82;101059.03;5021280;27;101786;-69
2022/07/21 00:33:05;;;;;;;14.80;4.97;;;;;;;31.79;26.29;101053.81;5028540;27;99227;-69
2022/07/21 00:35:31;;;;;;;9.65;5.05;;;;;;;31.80;26.20;101060.97;5022387;27;99422;-69
2022/07/21 00:37:57;;;;;;;10.15;5.45;;;;;;;31.82;26.39;101060.78;5024802;27;97046;-70
2022/07/21 00:40:24;;;;;;;10.63;5.57;;;;;;;31.78;26.15;101063.03;5019823;28;99088;-70
2022/07/21 00:42:51;;;;;;;16.25;5.88;;;;;;;31.67;26.40;101050.66;5025252;27;98804;-70
2022/07/21 00:45:18;;;;;;;11.52;5.00;;;;;;;31.79;26.02;101052.94;5021659;27;98197;-69
2022/07/21 00:47:45;;;;;;;8.75;5.35;;;;;;;31.62;26.24;101057.72;5026499;27;97147;-69
2022/07/21 00:50:14;;;;;;;9.45;5.32;;;;;;;31.61;26.50;101053.28;5026630;27;99200;-70
2022/07/21 00:52:40;;;;;;;10.43;5.30;;;;;;;31.63;26.69;101059.44;5022449;28;98879;-70
2022/07/21 00:55:10;;;;;;;13.18;5.13;;;;;;;31.60;26.44;101051.59;5018767;27;97101;-70
2022/07/21 00:57:37;;;;;;;15.43;5.43;;;;;;;31.68;26.20;101062.44;5026955;27;96947;-69
2022/07/21 01:00:05;;;;;;;11.55;4.88;;;;;;;31.64;26.46;101050.19;5021606;27;99562;-69
2022/07/21 01:02:36;;;;;;;9.95;5.70;;;;;;;31.58;26.70;101057.19;5026103;27;100303;-69
2022/07/21 01:05:02;;;;;;;12.23;5.00;;;;;;;31.60;26.78;101048.84;5023838;27;99021;-69
2022/07/21 01:07:29;;;;;;;8.45;5.00;;;;;;;31.53;26.74;101061.50;5029898;27;96824;-69
2022/07/21 01:09:56;;;;;;;7.93;4.97;;;;;;;31.70;26.44;101059.53;5023994;28;100280;-70
2022/07/21 01:12:23;;;;;;;7.03;5.05;;;;;;;31.41;27.01;101052.06;5031750;27;99013;-69
2022/07/21 01:14:50;;;;;;;9.48;5.35;;;;;;;31.46;26.54;101060.53;5021108;28;97068;-69
2022/07/21 01:17:16;;;;;;;7.50;4.82;;;;;;;31.45;26.53;101064.28;5021950;28;97051;-70
2022/07/21 01:19:45;;;;;;;11.32;5.18;;;;;;;31.62;26.80;101055.00;5022159;27;99282;-70
2022/07/21 01:22:12;;;;;;;12.57;5.35;;;;;;;31.70;26.45;101059.53;5027595;27;100148;-69
2022/07/21 01:24:39;;;;;;;8.65;4.82;;;;;;;31.47;26.54;101054.06;5020707;28;98491;-70
2022/07/21 01:27:05;;;;;;;13.82;5.18;;;;;;;31.54;26.92;101044.09;5025144;27;98714;-70
2022/07/21 01:29:32;;;;;;;12.30;5.53;;;;;;;31.69;26.64;101042.31;5019385;27;98196;-70
2022/07/21 01:31:58;;;;;;;10.13;5.10;;;;;;;31.56;26.78;101036.56;5024618;27;98943;-70
2022/07/21 01:34:24;;;;;;;12.35;5.45;;;;;;;31.69;26.43;101042.31;5028584;27;97436;-70
2022/07/21 01:36:51;;;;;;;9.93;5.53;;;;;;;31.56;26.95;101047.50;5025971;27;97500;-70
2022/07/21 01:42:03;;;;;;;12.57;5.30;;;;;;;31.49;26.74;101041.06;5025880;27;98127;-70
2022/07/21 01:44:29;;;;;;;9.32;5.22;;;;;;;31.33;26.94;101039.31;5018414;27;97314;-70
2022/07/21 01:46:56;;;;;;;11.43;5.18;;;;;;;31.28;27.22;101044.47;5027404;27;97228;-69
2022/07/21 01:49:23;;;;;;;8.77;5.32;;;;;;;31.30;27.01;101047.03;5022618;27;98978;-70
2022/07/21 01:51:50;;;;;;;11.75;5.28;;;;;;;31.44;26.97;101044.31;5022209;27;101669;-69
2022/07/21 01:54:19;;;;;;;11.52;5.95;;;;;;;31.51;26.91;101034.38;5023796;27;97069;-69
2022/07/21 01:56:45;;;;;;;11.02;5.40;;;;;;;31.29;27.10;101029.78;5018198;27;97089;-69
2022/07/21 01:59:12;;;;;;;9.02;5.32;;;;;;;31.40;27.32;101031.22;5023935;27;99401;-71
2022/07/21 02:01:38;;;;;;;9.45;5.88;;;;;;;31.12;27.20;101042.69;5027619;27;98864;-71
2022/07/21 02:04:06;;;;;;;8.75;5.22;;;;;;;31.09;27.40;101043.06;5024529;27;97265;-70
2022/07/21 02:06:32;;;;;;;11.52;5.10;;;;;;;31.04;27.56;101044.59;5024126;27;97650;-70
2022/07/21 02:08:59;;;;;;;10.75;5.10;;;;;;;31.02;27.73;101039.31;5025608;27;99014;-70
2022/07/21 02:11:27;;;;;;;8.70;5.45;;;;;;;31.03;27.75;101035.56;5030928;27;98865;-69
2022/07/21 02:13:53;;;;;;;7.78;5.07;;;;;;;31.03;27.48;101034.72;5024021;27;96900;-69
2022/07/21 02:16:20;;;;;;;12.82;6.15;;;;;;;30.97;27.75;101038.16;5022795;27;97182;-69
2022/07/21 02:18:46;;;;;;;11.35;5.25;;;;;;;31.00;27.78;101038.66;5023932;27;99055;-69
2022/07/21 02:21:13;;;;;;;7.70;5.60;;;;;;;31.04;27.76;101033.69;5019695;27;99397;-68
2022/07/21 02:23:39;;;;;;;8.80;4.88;;;;;;;30.79;28.23;101032.97;5025363;27;97024;-69
2022/07/21 02:26:06;;;;;;;8.48;5.25;;;;;;;30.76;27.92;101034.19;5025150;27;96899;-69
2022/07/21 02:28:34;;;;;;;16.70;5.65;;;;;;;30.71;28.18;101039.34;5019820;27;99486;-69
2022/07/21 02:31:00;;;;;;;7.47;5.15;;;;;;;30.73;28.01;101033.69;5020424;27;97753;-69
2022/07/21 02:33:26;;;;;;;9.93;4.90;;;;;;;30.46;28.61;101043.97;5020562;28;97287;-69
2022/07/21 02:35:54;;;;;;;7.85;5.00;;;;;;;30.53;28.61;101037.84;5019427;27;98417;-69
2022/07/21 02:38:20;;;;;;;9.75;4.88;;;;;;;30.58;28.15;101039.06;5025008;27;99123;-69
2022/07/21 02:40:46;;;;;;;11.38;5.65;;;;;;;30.57;28.61;101040.06;5021612;27;97526;-69
2022/07/21 02:43:13;;;;;;;10.18;4.93;;;;;;;30.52;28.36;101042.50;5026709;27;97297;-68
2022/07/21 02:45:43;;;;;;;10.48;4.60;;;;;;;30.42;28.45;101029.00;5016635;27;98954;-69
2022/07/21 02:48:11;;;;;;;7.60;4.60;;;;;;;30.42;28.56;101033.63;5027175;27;100233;-69
2022/07/21 02:50:39;;;;;;;8.90;4.93;;;;;;;30.57;28.45;101039.22;5023045;27;97488;-69
2022/07/21 02:53:07;;;;;;;17.17;5.32;;;;;;;30.41;28.38;101021.84;5024085;28;96848;-69
2022/07/21 02:55:34;;;;;;;8.88;4.40;;;;;;;30.37;28.60;101022.41;5021356;28;97161;-69
2022/07/21 02:58:08;;;;;;;8.80;5.35;;;;;;;30.38;28.94;101029.56;5018405;27;101254;-69
2022/07/21 03:00:36;;;;;;;10.93;4.78;;;;;;;30.39;28.68;101018.44;5015066;27;99065;-69
2022/07/21 03:03:05;;;;;;;9.32;4.97;;;;;;;30.39;28.62;101013.00;5019788;28;99143;-70
2022/07/21 03:05:32;;;;;;;9.50;4.55;;;;;;;30.40;28.39;101014.69;5021499;27;97252;-69
2022/07/21 03:07:58;;;;;;;9.43;4.10;;;;;;;30.35;28.64;101008.09;5018518;27;98932;-70
2022/07/21 03:10:24;;;;;;;9.30;4.30;;;;;;;30.55;28.33;101008.53;5017879;27;99551;-70
2022/07/21 03:12:51;;;;;;;12.30;4.95;;;;;;;30.61;28.18;101007.84;5020614;28;97452;-71
2022/07/21 03:15:17;;;;;;;8.95;4.63;;;;;;;30.69;28.07;100992.28;5025960;27;98417;-70
2022/07/21 03:17:44;;;;;;;11.82;4.10;;;;;;;30.34;28.88;101000.94;5027315;27;98932;-69
2022/07/21 03:20:12;;;;;;;7.43;4.00;;;;;;;30.51;28.32;101018.13;5026676;27;98821;-70
2022/07/21 03:22:39;;;;;;;9.20;4.40;;;;;;;30.56;28.21;101002.06;5025353;27;96795;-69
2022/07/21 03:25:07;;;;;;;7.45;4.28;;;;;;;30.46;28.69;101027.63;5025415;27;96982;-69
2022/07/21 03:27:36;;;;;;;10.73;4.65;;;;;;;30.58;28.85;101024.56;5022908;27;98927;-70
2022/07/21 03:30:03;;;;;;;10.18;4.45;;;;;;;30.43;28.42;101033.44;5024857;27;99251;-70
2022/07/21 03:32:30;;;;;;;13.80;4.45;;;;;;;30.38;28.63;101035.84;5023890;27;97115;-69
2022/07/21 03:34:56;;;;;;;10.88;5.07;;;;;;;30.29;28.89;101041.50;5025344;27;96944;-70
2022/07/21 03:37:24;;;;;;;12.52;4.35;;;;;;;30.40;28.54;101033.78;5023434;28;99510;-69
2022/07/21 03:39:50;;;;;;;8.88;4.45;;;;;;;30.21;29.27;101039.63;5019010;27;98977;-69
2022/07/21 03:42:16;;;;;;;8.43;4.32;;;;;;;30.28;29.10;101039.78;5020402;28;97307;-69
2022/07/21 03:44:43;;;;;;;8.38;4.10;;;;;;;30.17;29.21;101038.31;5020743;27;97746;-69
2022/07/21 03:47:09;;;;;;;11.45;4.40;;;;;;;30.34;28.86;101048.13;5022785;27;98891;-69
2022/07/21 03:49:36;;;;;;;13.00;4.45;;;;;;;30.13;29.41;101052.47;5020803;27;98832;-69
2022/07/21 03:52:02;;;;;;;8.55;4.40;;;;;;;30.13;29.39;101047.84;5019085;27;97805;-69
2022/07/21 03:54:30;;;;;;;10.90;3.90;;;;;;;29.97;29.42;101039.72;5023268;28;97391;-69
2022/07/21 03:56:56;;;;;;;9.77;4.15;;;;;;;30.05;29.24;101045.16;5020524;28;98231;-69
2022/07/21 03:59:22;;;;;;;16.17;4.78;;;;;;;30.08;29.23;101051.09;5022606;27;102980;-70
2022/07/21 04:01:49;;;;;;;11.50;5.00;;;;;;;30.15;29.33;101039.50;5021726;27;98240;-70
2022/07/21 04:04:15;;;;;;;9.25;4.80;;;;;;;30.23;29.24;101048.50;5026869;27;97313;-71
2022/07/21 04:06:41;;;;;;;6.75;4.05;;;;;;;30.14;29.28;101055.00;5019610;27;99232;-70
2022/07/21 04:09:08;;;;;;;12.25;4.60;;;;;;;30.08;29.85;101063.84;5020521;28;99516;-71
2022/07/21 04:11:35;;;;;;;13.95;4.45;;;;;;;29.96;29.85;101062.53;5022702;27;97889;-71
2022/07/21 04:14:02;;;;;;;12.23;4.10;;;;;;;29.95;29.64;101074.44;5023383;27;98301;-71
2022/07/21 04:16:28;;;;;;;10.45;4.78;;;;;;;29.89;29.88;101067.78;5017681;27;98751;-70
2022/07/21 04:18:54;;;;;;;10.68;4.22;;;;;;;29.97;30.16;101080.56;5021900;28;98785;-70
2022/07/21 04:21:21;;;;;;;11.27;4.97;;;;;;;29.99;30.07;101067.63;5024755;27;96785;-70
2022/07/21 04:23:47;;;;;;;8.55;4.70;;;;;;;30.06;29.70;101068.66;5023033;28;98063;-69
2022/07/21 04:26:13;;;;;;;7.28;4.60;;;;;;;30.03;30.17;101080.72;5025463;27;99240;-69
2022/07/21 04:28:41;;;;;;;12.65;5.00;;;;;;;29.78;30.36;101079.03;5022683;27;100296;-70
2022/07/21 04:31:07;;;;;;;10.75;4.35;;;;;;;29.74;30.66;101091.25;5024619;27;99061;-69
2022/07/21 04:33:35;;;;;;;10.32;5.30;;;;;;;29.78;30.61;101087.19;5024913;27;97871;-70
2022/07/21 04:36:01;;;;;;;16.95;4.97;;;;;;;29.74;30.49;101096.72;5021675;27;98680;-70
2022/07/21 04:38:27;;;;;;;17.83;4.78;;;;;;;29.76;30.72;101091.09;5024329;27;98986;-69
2022/07/21 04:40:54;;;;;;;8.48;4.90;;;;;;;29.63;30.90;101111.53;5024512;27;96932;-69
2022/07/21 04:43:20;;;;;;;9.40;4.88;;;;;;;29.78;30.95;101113.56;5026393;27;97494;-70
2022/07/21 04:45:48;;;;;;;9.23;4.32;;;;;;;29.84;30.60;101118.34;5008575;27;98266;-70
2022/07/21 04:48:14;;;;;;;11.82;4.55;;;;;;;30.06;30.30;101120.41;5012766;27;100305;-69
2022/07/21 04:50:41;;;;;;;13.15;4.72;;;;;;;29.90;30.88;101123.09;5019328;28;96862;-69
2022/07/21 04:53:08;;;;;;;8.23;4.80;;;;;;;30.20;30.05;101116.13;5019081;28;96927;-70
2022/07/21 04:55:34;;;;;;;14.05;7.22;;;;;;;29.94;30.72;101121.75;5022110;28;99369;-70
2022/07/21 04:58:00;;;;;;;11.00;7.28;;;;;;;29.77;31.46;101133.66;5019285;27;98903;-69
2022/07/21 05:00:28;;;;;;;13.48;7.55;;;;;;;29.85;31.67;101123.63;5018991;27;97063;-70
2022/07/21 05:02:56;;;;;;;11.65;7.45;;;;;;;29.72;32.00;101126.00;5020418;27;98878;-69
2022/07/21 05:05:23;;;;;;;11.80;7.88;;;;;;;29.77;31.76;101129.06;5025489;27;99156;-69
2022/07/21 05:07:49;;;;;;;17.30;10.43;;;;;;;29.68;32.42;101146.41;5029269;27;98793;-70
2022/07/21 05:10:18;;;;;;;17.77;10.00;;;;;;;29.78;32.29;101141.66;5026012;27;97570;-69
2022/07/21 05:12:44;;;;;;;17.67;11.02;;;;;;;29.45;33.44;101143.50;5028318;27;96838;-69
2022/07/21 05:15:12;;;;;;;17.38;11.68;;;;;;;29.37;33.58;101148.91;5020355;27;98448;-69
2022/07/21 05:17:38;;;;;;;16.25;11.77;;;;;;;29.63;33.21;101163.25;5014493;27;98667;-70
2022/07/21 05:20:09;;;;;;;22.95;11.90;;;;;;;29.75;33.22;101168.38;5020186;28;96778;-70
2022/07/21 05:22:35;;;;;;;22.33;12.73;;;;;;;29.96;32.79;101177.81;5021953;27;97202;-69
2022/07/21 05:25:02;;;;;;;26.08;13.60;;;;;;;29.71;33.74;101182.34;5022793;28;99014;-70
2022/07/21 05:27:28;;;;;;;22.80;12.45;;;;;;;29.84;33.47;101179.13;5020746;27;98815;-69
2022/07/21 05:29:55;;;;;;;22.65;13.02;;;;;;;29.95;33.63;101177.97;5025643;27;98489;-69
2022/07/21 05:32:22;;;;;;;19.08;12.18;;;;;;;29.83;33.61;101187.47;5012882;27;99172;-69
2022/07/21 05:34:48;;;;;;;21.95;13.65;;;;;;;30.31;32.87;101192.09;5019921;27;99230;-70
2022/07/21 05:37:16;;;;;;;21.05;13.35;;;;;;;29.96;33.40;101175.06;5019378;27;98978;-70
2022/07/21 05:39:42;;;;;;;20.05;13.52;;;;;;;30.12;33.58;101192.47;5024363;28;97022;-70
2022/07/21 05:42:08;;;;;;;22.02;14.82;;;;;;;30.00;33.92;101206.41;5029834;27;96958;-71
2022/07/21 05:44:35;;;;;;;23.48;13.77;;;;;;;30.09;33.83;101196.38;5026230;27;98119;-70
2022/07/21 05:47:01;;;;;;;29.27;14.15;;;;;;;29.99;33.86;101199.28;5030287;27;98909;-70
2022/07/21 05:49:27;;;;;;;23.98;13.43;;;;;;;29.68;34.17;101190.84;5024539;27;97030;-70
2022/07/21 05:51:54;;;;;;;19.70;12.65;;;;;;;29.91;34.23;101199.22;5026168;27;96848;-70
2022/07/21 05:54:21;;;;;;;25.58;12.98;;;;;;;29.41;34.98;101203.88;5024815;27;99031;-70
2022/07/21 05:56:48;;;;;;;21.60;13.18;;;;;;;29.03;35.80;101205.22;5026379;27;98018;-70
2022/07/21 05:59:15;;;;;;;22.45;13.35;;;;;;;29.16;35.25;101206.47;5020186;27;96877;-70
2022/07/21 06:01:41;;;;;;;22.90;13.68;;;;;;;29.65;34.69;101217.56;5026278;28;97539;-70
2022/07/21 06:04:07;;;;;;;23.25;13.55;;;;;;;29.67;34.57;101215.50;5026875;27;98914;-71
2022/07/21 06:06:34;;;;;;;23.80;14.20;;;;;;;29.37;35.22;101224.28;5027959;27;99064;-70
2022/07/21 06:09:00;;;;;;;23.58;13.75;;;;;;;28.94;35.87;101237.00;5021322;27;98525;-71
2022/07/21 06:11:28;;;;;;;19.10;13.13;;;;;;;29.07;35.97;101228.38;5027044;27;97015;-71
2022/07/21 06:13:54;;;;;;;28.55;14.07;;;;;;;29.17;35.61;101223.66;5022408;27;99129;-70
2022/07/21 06:16:21;;;;;;;25.83;13.55;;;;;;;29.43;35.07;101219.03;5022981;27;98719;-71
2022/07/21 06:18:47;;;;;;;21.67;12.52;;;;;;;29.89;34.50;101217.59;5024078;27;97287;-70
2022/07/21 06:21:13;;;;;;;20.85;13.32;;;;;;;29.83;34.10;101217.41;5026483;27;97266;-72
2022/07/21 06:23:40;;;;;;;23.00;13.20;;;;;;;30.27;33.68;101209.81;5020712;27;98902;-71
2022/07/21 06:26:06;;;;;;;19.23;12.93;;;;;;;30.04;33.90;101217.81;5026686;27;98820;-71
2022/07/21 06:28:34;;;;;;;20.13;12.98;;;;;;;29.82;33.99;101222.00;5023166;27;96812;-72
2022/07/21 06:31:00;;;;;;;22.60;13.25;;;;;;;30.37;33.58;101233.16;5021802;27;97817;-71
2022/07/21 06:33:27;;;;;;;19.55;13.45;;;;;;;30.35;33.21;101234.34;5024728;27;99465;-70
2022/07/21 06:35:53;;;;;;;17.58;12.75;;;;;;;30.38;33.79;101243.06;5023578;27;98101;-70
2022/07/21 06:38:19;;;;;;;19.55;12.98;;;;;;;30.12;33.95;101230.63;5022474;28;97160;-71
2022/07/21 06:40:45;;;;;;;22.80;12.30;;;;;;;29.89;34.14;101227.66;5028475;27;97413;-71
2022/07/21 06:43:12;;;;;;;21.15;12.98;;;;;;;29.86;34.26;101242.47;5025554;27;98987;-71
2022/07/21 06:45:40;;;;;;;18.38;12.73;;;;;;;29.55;35.06;101246.78;5027288;27;98847;-70
2022/07/21 06:48:08;;;;;;;20.27;12.45;;;;;;;29.36;34.83;101244.34;5021997;27;98598;-71
2022/07/21 06:50:35;;;;;;;19.15;12.30;;;;;;;30.11;33.98;101248.84;5024226;27;96860;-70
2022/07/21 06:53:03;;;;;;;19.60;12.45;;;;;;;30.55;33.08;101237.59;5017127;28;99162;-70
2022/07/21 06:55:29;;;;;;;17.50;12.57;;;;;;;30.89;32.47;101251.88;5024577;27;99020;-70
2022/07/21 06:57:55;;;;;;;17.85;11.73;;;;;;;31.26;32.17;101254.84;5015546;27;98564;-70
2022/07/21 07:00:25;;;;;;;47.70;13.48;;;;;;;31.29;32.19;101275.50;5023846;28;98409;-72
2022/07/21 07:02:52;;;;;;;28.95;12.57;;;;;;;31.37;31.94;101266.44;5033756;27;100969;-70
2022/07/21 07:05:19;;;;;;;15.90;10.60;;;;;;;31.58;31.68;101267.50;5023842;27;99127;-69
2022/07/21 07:07:47;;;;;;;26.92;11.88;;;;;;;31.65;30.96;101268.53;5023888;27;98627;-70
2022/07/21 07:10:14;;;;;;;16.83;11.68;;;;;;;31.40;31.14;101256.00;5022804;27;96789;-70
2022/07/21 07:12:40;;;;;;;24.20;11.95;;;;;;;31.41;31.84;101259.56;5023131;28;99253;-70
2022/07/21 07:15:07;;;;;;;24.63;12.18;;;;;;;31.09;32.08;101249.63;5022879;27;99395;-71
2022/07/21 07:17:34;;;;;;;20.90;11.45;;;;;;;31.03;31.92;101253.88;5022772;27;99090;-71
2022/07/21 07:20:03;;;;;;;20.25;11.45;;;;;;;31.22;31.90;101264.44;5021567;27;97546;-70
2022/07/21 07:22:29;;;;;;;16.02;10.93;;;;;;;31.37;31.62;101256.38;5017698;27;98973;-70
2022/07/21 07:24:56;;;;;;;16.40;11.40;;;;;;;31.40;31.33;101256.00;5024938;27;98810;-70
2022/07/21 07:27:22;;;;;;;15.57;10.85;;;;;;;31.49;31.57;101254.09;5022366;27;96795;-70
2022/07/21 07:29:48;;;;;;;16.75;10.98;;;;;;;31.26;31.42;101273.97;5025805;27;97227;-70
2022/07/21 07:32:15;;;;;;;17.13;10.80;;;;;;;31.28;32.14;101285.56;5017709;28;98498;-70
2022/07/21 07:34:41;;;;;;;18.48;10.82;;;;;;;31.04;32.48;101285.63;5019583;27;99163;-70
2022/07/21 07:37:09;;;;;;;15.98;10.68;;;;;;;31.32;31.61;101279.75;5020711;27;97218;-71
2022/07/21 07:39:37;;;;;;;19.58;10.63;;;;;;;31.27;31.75;101294.78;5022030;27;97485;-70
2022/07/21 07:42:04;;;;;;;17.67;10.55;;;;;;;31.27;32.25;101294.78;5024260;27;99447;-70
2022/07/21 07:44:30;;;;;;;17.63;10.10;;;;;;;31.08;31.83;101292.44;5021457;27;99305;-70
2022/07/21 07:46:57;;;;;;;22.13;10.23;;;;;;;30.38;33.39;101302.19;5025483;27;97233;-70
2022/07/21 07:49:23;;;;;;;14.48;9.98;;;;;;;30.63;32.86;101294.88;5017736;28;96962;-70
2022/07/21 07:51:49;;;;;;;17.10;9.30;;;;;;;30.45;33.26;101301.34;5022873;28;98925;-71
2022/07/21 07:54:17;;;;;;;13.75;9.63;;;;;;;30.69;33.04;101302.38;5022844;27;99884;-73
2022/07/21 07:56:43;;;;;;;17.63;9.63;;;;;;;31.06;32.54;101307.28;5028633;27;97100;-71
2022/07/21 07:59:10;;;;;;;17.17;9.55;;;;;;;31.02;32.54;101309.50;5026942;27;97281;-71
2022/07/21 08:01:36;;;;;;;21.05;10.05;;;;;;;31.06;32.38;101313.59;5024797;27;98990;-70
2022/07/21 08:04:03;;;;;;;17.48;9.40;;;;;;;31.47;32.05;101310.75;5008480;27;99158;-71
2022/07/21 08:06:29;;;;;;;14.57;9.57;;;;;;;31.93;31.35;101307.16;5024594;27;97594;-72
2022/07/21 08:08:56;;;;;;;14.63;9.43;;;;;;;32.05;31.30;101323.97;5024839;27;96922;-70
2022/07/21 08:11:23;;;;;;;16.27;10.20;;;;;;;32.36;30.70;101315.78;5028344;28;99306;-70
2022/07/21 08:13:50;;;;;;;24.85;8.77;;;;;;;31.93;31.63;101315.34;5023343;27;99089;-70
2022/07/21 08:16:17;;;;;;;19.92;9.88;;;;;;;32.64;30.43;101316.06;5026186;27;97142;-71
2022/07/21 08:18:44;;;;;;;19.48;9.80;;;;;;;32.99;29.80;101328.25;5022522;27;97218;-73
2022/07/21 08:21:10;;;;;;;83.20;11.77;;;;;;;32.27;30.62;101320.47;5023809;27;101190;-71
2022/07/21 08:23:37;;;;;;;45.22;10.40;;;;;;;32.50;30.33;101312.22;5022393;28;98989;-71
2022/07/21 08:26:04;;;;;;;96.32;12.30;;;;;;;32.79;30.05;101308.78;5022651;27;98203;-73
2022/07/21 08:28:31;;;;;;;977.80;70.43;;;;;;;32.96;29.59;101293.88;5017742;27;97484;-71
2022/07/21 08:30:58;;;;;;;667.55;44.75;;;;;;;33.08;29.74;101314.28;5027803;27;98860;-69
2022/07/21 08:33:24;;;;;;;211.45;19.00;;;;;;;32.97;29.82;101325.69;5025926;27;100687;-71
2022/07/21 08:35:50;;;;;;;524.25;37.03;;;;;;;33.26;29.56;101329.53;5024993;27;97354;-70
2022/07/21 08:38:18;;;;;;;23.60;8.70;;;;;;;32.50;30.00;101328.66;5020314;27;97497;-70
2022/07/21 08:40:46;;;;;;;17.48;8.98;;;;;;;32.66;30.02;101331.25;5025632;27;99312;-70
2022/07/21 08:43:14;;;;;;;11.73;8.13;;;;;;;32.69;30.02;101330.91;5023800;27;97805;-70
2022/07/21 08:45:42;;;;;;;24.73;9.13;;;;;;;32.76;29.99;101326.41;5030508;27;97665;-70
2022/07/21 08:48:09;;;;;;;18.55;9.10;;;;;;;32.86;29.91;101328.03;5026977;27;97120;-71
2022/07/21 08:50:38;;;;;;;19.95;8.95;;;;;;;32.70;30.56;101326.28;5021718;27;99461;-69
2022/07/21 08:53:04;;;;;;;27.33;9.23;;;;;;;32.55;30.52;101323.50;5025238;27;98857;-69
2022/07/21 08:55:32;;;;;;;53.05;10.40;;;;;;;32.77;29.97;101321.78;5020226;27;96838;-71
2022/07/21 08:57:59;;;;;;;23.38;8.77;;;;;;;32.26;30.71;101323.38;5020275;28;98523;-70
2022/07/21 09:00:26;;;;;;;12.93;8.23;;;;;;;32.48;30.06;101338.94;5023052;27;99127;-70
2022/07/21 09:03:13;;;;;;;18.45;8.45;;;;;;;32.44;30.40;101322.03;5019842;27;100783;-70
2022/07/21 09:05:40;;;;;;;59.00;10.30;;;;;;;32.94;29.82;101323.34;5020835;27;97455;-70
2022/07/21 09:08:07;;;;;;;14.20;7.75;;;;;;;33.22;28.93;101323.56;5021479;27;96905;-70
2022/07/21 09:10:33;;;;;;;52.72;9.20;;;;;;;33.33;28.58;101312.19;5029925;27;99143;-70
2022/07/21 09:13:02;;;;;;;10.65;7.03;;;;;;;33.16;28.88;101310.59;5024504;27;98884;-69
2022/07/21 09:15:32;;;;;;;11.18;7.15;;;;;;;32.15;29.87;101321.06;5026538;27;96986;-70
2022/07/21 09:18:16;;;;;;;11.98;7.03;;;;;;;32.63;29.50;101315.19;5019615;27;96816;-70
2022/07/21 09:20:48;;;;;;;11.48;7.78;;;;;;;32.96;29.47;101314.94;5017659;28;99104;-71
2022/07/21 09:23:17;;;;;;;12.55;7.47;;;;;;;32.77;29.19;101314.44;5022945;27;98859;-71
2022/07/21 09:25:46;;;;;;;10.77;6.32;;;;;;;32.72;29.35;101313.28;5018176;28;96791;-71
2022/07/21 09:28:15;;;;;;;12.23;6.95;;;;;;;32.41;29.91;101307.88;5021743;27;97006;-70
2022/07/21 09:30:53;;;;;;;15.02;6.97;;;;;;;32.93;29.41;101315.31;5017186;27;100028;-69
2022/07/21 09:33:23;;;;;;;11.77;6.43;;;;;;;32.95;28.85;101319.53;5024010;27;99669;-72
2022/07/21 09:35:58;;;;;;;11.02;6.97;;;;;;;33.15;28.69;101312.50;5023440;27;96959;-71
2022/07/21 09:38:26;;;;;;;10.82;6.53;;;;;;;33.30;28.61;101312.53;5020293;28;96846;-70
2022/07/21 09:40:58;;;;;;;14.88;6.63;;;;;;;33.32;28.32;101296.78;5023547;28;98045;-70
2022/07/21 09:43:33;;;;;;;16.98;8.35;;;;;;;33.34;28.77;101304.81;5018226;27;98969;-71
2022/07/21 09:46:04;;;;;;;10.68;7.07;;;;;;;33.59;27.94;101308.94;5023251;27;97805;-71
2022/07/21 09:48:34;;;;;;;12.18;7.18;;;;;;;33.68;28.18;101317.88;5022474;27;97618;-70
2022/07/21 09:51:22;;;;;;;8.85;6.35;;;;;;;34.38;27.51;101312.66;5023955;28;101365;-71
2022/07/21 09:53:50;;;;;;;8.65;5.15;;;;;;;34.17;26.68;101326.31;5016563;28;99132;-70
2022/07/21 09:56:18;;;;;;;8.82;5.55;;;;;;;33.86;26.77;101326.59;5021518;27;96887;-70
2022/07/21 09:58:46;;;;;;;10.60;5.22;;;;;;;34.07;26.98;101326.63;5016592;28;97731;-70
2022/07/21 10:01:12;;;;;;;9.68;5.68;;;;;;;34.26;26.69;101327.94;5025631;27;98905;-70
2022/07/21 10:03:43;;;;;;;9.52;5.15;;;;;;;34.58;26.09;101326.56;5017800;27;98057;-71
2022/07/21 10:06:10;;;;;;;8.02;5.18;;;;;;;34.76;26.02;101327.81;5027512;27;96788;-71
2022/07/21 10:08:38;;;;;;;13.98;5.90;;;;;;;35.00;25.89;101334.75;5022722;27;97077;-71
2022/07/21 10:11:05;;;;;;;8.35;5.35;;;;;;;34.90;25.82;101333.41;5027765;27;99200;-70
2022/07/21 10:13:32;;;;;;;11.70;5.50;;;;;;;34.73;26.03;101335.56;5024828;27;98909;-70
2022/07/21 10:15:59;;;;;;;10.88;6.38;;;;;;;34.70;26.20;101346.94;5027814;27;96813;-69
2022/07/21 10:18:26;;;;;;;6.00;5.20;;;;;;;34.78;26.30;101336.72;5020982;27;96903;-69
2022/07/21 10:21:00;;;;;;;7.18;5.28;;;;;;;34.56;26.27;101347.84;5024024;27;99214;-69
2022/07/21 10:23:35;;;;;;;8.00;5.15;;;;;;;34.08;26.50;101349.41;5022316;27;98830;-70
2022/07/21 10:26:02;;;;;;;6.85;5.18;;;;;;;34.03;26.69;101347.25;5024317;27;96968;-70
2022/07/21 10:28:29;;;;;;;10.18;5.43;;;;;;;34.34;26.55;101352.47;5023828;27;96830;-70
2022/07/21 10:30:57;;;;;;;8.45;5.22;;;;;;;33.98;27.20;101356.06;5023972;27;97818;-70
2022/07/21 10:33:54;;;;;;;10.35;4.90;;;;;;;33.53;27.42;101368.09;5022985;27;98771;-71
2022/07/21 10:36:36;;;;;;;;;;;;;;;33.63;27.30;101368.66;5024257;27;97220;-70
2022/07/21 10:39:18;;;;;;;13.55;5.85;;;;;;;33.73;27.06;101364.81;5021983;27;96947;-69
2022/07/21 10:41:46;;;;;;;8.98;5.10;;;;;;;33.61;27.19;101369.88;5017626;27;98038;-72
2022/07/21 10:44:40;;;;;;;10.68;5.57;;;;;;;33.84;26.89;101380.75;5024472;27;101119;-70
2022/07/21 10:47:08;;;;;;;8.88;4.70;;;;;;;34.03;26.63;101382.91;5019890;27;98401;-70
2022/07/21 10:49:53;;;;;;;10.85;5.70;;;;;;;34.01;26.99;101382.22;5015389;27;97489;-70
2022/07/21 10:52:57;;;;;;;9.27;4.85;;;;;;;33.94;26.75;101389.53;5028680;27;97870;-70
2022/07/21 10:55:27;;;;;;;8.10;5.00;;;;;;;33.95;26.77;101385.75;5025084;27;99005;-70
2022/07/21 10:58:14;;;;;;;7.47;5.28;;;;;;;34.13;26.55;101371.63;5023229;27;96814;-70
2022/07/21 11:00:49;;;;;;;6.90;4.30;;;;;;;34.42;26.09;101370.72;5020377;27;97124;-71
2022/07/21 11:03:19;;;;;;;7.60;4.28;;;;;;;34.78;25.68;101377.03;5025692;27;99029;-70
2022/07/21 11:06:10;;;;;;;12.38;8.63;;;;;;;34.52;25.91;101383.09;5024252;27;98860;-71
2022/07/21 11:08:40;;;;;;;11.32;3.83;;;;;;;34.47;25.75;101382.78;5018704;28;96978;-70
2022/07/21 11:11:10;;;;;;;9.52;4.63;;;;;;;34.30;26.11;101379.47;5027448;27;96936;-70
2022/07/21 11:14:02;;;;;;;11.52;4.32;;;;;;;34.20;26.28;101370.66;5023031;27;98919;-70
2022/07/21 11:17:02;;;;;;;11.90;4.40;;;;;;;33.19;27.29;101378.75;5027414;27;100259;-70
2022/07/21 11:19:31;;;;;;;5.53;3.92;;;;;;;33.75;27.11;101363.56;5023014;27;97146;-70
2022/07/21 11:22:00;;;;;;;9.68;4.03;;;;;;;34.48;26.29;101362.53;5024144;27;97219;-70
2022/07/21 11:24:28;;;;;;;10.88;4.40;;;;;;;35.16;25.15;101367.41;5016683;27;98730;-71